createdAt,value
2018-07-04T00:01:01.798Z,100039.99
2018-07-04T00:03:42.227Z,100041.95
2018-07-04T00:06:22.577Z,100041.89
2018-07-04T00:09:06.189Z,100038.87
2018-07-04T00:11:46.742Z,100035.20
2018-07-04T00:14:27.308Z,100041.33
2018-07-04T00:17:07.630Z,100046.06
2018-07-04T00:19:47.951Z,100040.26
2018-07-04T00:22:28.282Z,100038.73
2018-07-04T00:25:08.649Z,100041.42
2018-07-04T00:27:49.287Z,100038.55
2018-07-04T00:30:29.777Z,100036.56
2018-07-04T00:33:10.298Z,100035.92
2018-07-04T00:35:50.813Z,100040.13
2018-07-04T00:38:31.639Z,100043.28
2018-07-04T00:41:12.168Z,100042.64
2018-07-04T00:43:52.505Z,100050.16
2018-07-04T00:46:32.948Z,100057.61
2018-07-04T00:49:13.274Z,100056.89
2018-07-04T00:51:53.745Z,100065.44
2018-07-04T00:54:34.297Z,100064.34
2018-07-04T00:57:14.601Z,100061.30
2018-07-04T00:59:55.008Z,100057.59
2018-07-04T01:02:35.393Z,100051.47
2018-07-04T01:05:15.842Z,100046.25
2018-07-04T01:07:56.338Z,100049.64
2018-07-04T01:10:36.907Z,100049.71
2018-07-04T01:13:17.589Z,100045.47
2018-07-04T01:15:57.941Z,100042.61
2018-07-04T01:18:38.236Z,100050.44
2018-07-04T01:21:18.678Z,100055.73
2018-07-04T01:23:58.961Z,100049.02
2018-07-04T01:26:39.481Z,100051.42
2018-07-04T01:29:19.748Z,100050.05
2018-07-04T01:32:00.192Z,100046.59
2018-07-04T01:34:40.768Z,100050.67
2018-07-04T01:37:21.084Z,100047.97
2018-07-04T01:40:01.391Z,100053.27
2018-07-04T01:42:41.813Z,100053.13
2018-07-04T01:45:22.242Z,100055.56
2018-07-04T01:48:02.724Z,100055.20
2018-07-04T01:50:43.025Z,100055.95
2018-07-04T01:53:23.460Z,100050.80
2018-07-04T01:56:03.908Z,100050.30
2018-07-04T01:58:44.437Z,100052.27
2018-07-04T02:01:25.259Z,100055.81
2018-07-04T02:04:05.785Z,100052.69
2018-07-04T02:06:46.174Z,100047.42
2018-07-04T02:09:26.468Z,100049.06
2018-07-04T02:12:06.951Z,100045.70
2018-07-04T02:14:47.372Z,100042.06
2018-07-04T02:17:27.853Z,100037.70
2018-07-04T02:20:08.399Z,100038.88
2018-07-04T02:22:49.736Z,100034.08
2018-07-04T02:25:30.288Z,100038.06
2018-07-04T02:28:10.609Z,100037.85
2018-07-04T02:30:50.867Z,100038.64
2018-07-04T02:33:31.178Z,100033.02
2018-07-04T02:36:11.503Z,100037.97
2018-07-04T02:38:52.038Z,100037.81
2018-07-04T02:41:32.442Z,100043.52
2018-07-04T02:44:12.869Z,100043.31
2018-07-04T02:46:53.283Z,100042.38
2018-07-04T02:49:33.598Z,100046.46
2018-07-04T02:52:14.017Z,100046.46
2018-07-04T02:54:54.317Z,100048.47
2018-07-04T02:57:34.676Z,100045.78
2018-07-04T03:00:15.201Z,100041.53
2018-07-04T03:02:55.568Z,100046.91
2018-07-04T03:05:36.067Z,100050.37
2018-07-04T03:08:16.605Z,100045.83
2018-07-04T03:10:57.033Z,100049.03
2018-07-04T03:13:37.706Z,100036.91
2018-07-04T03:16:18.149Z,100039.39
2018-07-04T03:18:58.583Z,100039.11
2018-07-04T03:21:38.790Z,100044.17
2018-07-04T03:24:19.143Z,100037.49
2018-07-04T03:26:59.505Z,100033.40
2018-07-04T03:29:39.791Z,100030.47
2018-07-04T03:32:20.125Z,100030.70
2018-07-04T03:35:00.431Z,100037.14
2018-07-04T03:37:40.778Z,100040.13
2018-07-04T03:40:24.136Z,100038.78
2018-07-04T03:43:04.634Z,100047.86
2018-07-04T03:45:45.403Z,100045.96
2018-07-04T03:48:25.746Z,100040.84
2018-07-04T03:51:06.300Z,100042.42
2018-07-04T03:53:46.572Z,100044.27
2018-07-04T03:56:26.892Z,100040.45
2018-07-04T03:59:07.169Z,100043.08
2018-07-04T04:01:47.497Z,100037.43
2018-07-04T04:04:27.802Z,100041.13
2018-07-04T04:07:08.281Z,100042.12
2018-07-04T04:09:48.632Z,100045.26
2018-07-04T04:12:29.017Z,100050.65
2018-07-04T04:15:09.327Z,100051.56
2018-07-04T04:17:49.663Z,100054.75
2018-07-04T04:20:30.083Z,100052.70
2018-07-04T04:23:10.541Z,100057.09
2018-07-04T04:25:50.873Z,100060.84
2018-07-04T04:28:31.337Z,100058.83
2018-07-04T04:31:11.667Z,100057.69
2018-07-04T04:33:52.188Z,100054.37
2018-07-04T04:36:32.695Z,100060.32
2018-07-04T04:39:13.063Z,100057.24
2018-07-04T04:41:53.356Z,100058.50
2018-07-04T04:44:33.793Z,100048.89
2018-07-04T04:47:14.130Z,100050.05
2018-07-04T04:49:54.572Z,100046.08
2018-07-04T04:52:34.937Z,100046.88
2018-07-04T04:55:15.423Z,100044.98
2018-07-04T04:57:55.883Z,100041.75
2018-07-04T05:00:36.309Z,100045.41
2018-07-04T05:03:17.014Z,100044.91
2018-07-04T05:05:57.706Z,100044.09
2018-07-04T05:08:38.127Z,100042.80
2018-07-04T05:11:18.498Z,100053.44
2018-07-04T05:13:58.963Z,100051.53
2018-07-04T05:16:39.233Z,100049.84
2018-07-04T05:19:19.684Z,100044.23
2018-07-04T05:22:00.137Z,100045.76
2018-07-04T05:24:40.606Z,100045.30
2018-07-04T05:27:21.013Z,100044.72
2018-07-04T05:30:01.654Z,100052.06
2018-07-04T05:32:42.146Z,100051.09
2018-07-04T05:35:22.645Z,100053.43
2018-07-04T05:38:03.017Z,100047.78
2018-07-04T05:40:43.480Z,100046.41
2018-07-04T05:43:23.901Z,100053.78
2018-07-04T05:46:04.179Z,100056.80
2018-07-04T05:48:44.736Z,100055.42
2018-07-04T05:51:25.245Z,100059.94
2018-07-04T05:54:05.794Z,100059.42
2018-07-04T05:56:46.081Z,100059.47
2018-07-04T05:59:26.403Z,100055.06
2018-07-04T06:02:06.886Z,100054.27
2018-07-04T06:04:47.500Z,100049.56
2018-07-04T06:07:27.897Z,100053.16
2018-07-04T06:10:08.257Z,100048.26
2018-07-04T06:12:48.758Z,100041.63
2018-07-04T06:15:29.249Z,100040.16
2018-07-04T06:18:10.019Z,100048.27
2018-07-04T06:20:50.486Z,100044.80
2018-07-04T06:23:31.111Z,100032.70
2018-07-04T06:26:11.514Z,100032.34
2018-07-04T06:28:51.945Z,100020.84
2018-07-04T06:31:32.561Z,100026.64
2018-07-04T06:34:12.998Z,100019.52
2018-07-04T06:36:53.256Z,100012.80
2018-07-04T06:39:27.469Z,100018.58
2018-07-04T06:41:55.705Z,100016.03
2018-07-04T06:44:23.896Z,100012.76
2018-07-04T06:46:51.871Z,100012.45
2018-07-04T06:49:19.954Z,100004.52
2018-07-04T06:51:48.302Z,100011.74
2018-07-04T06:54:16.391Z,100010.15
2018-07-04T06:56:44.249Z,100008.22
2018-07-04T06:59:12.296Z,100009.12
2018-07-04T07:01:40.273Z,100006.84
2018-07-04T07:04:20.871Z,100008.52
2018-07-04T07:07:01.268Z,100002.79
2018-07-04T07:09:41.955Z,100005.50
2018-07-04T07:12:22.323Z,99999.95
2018-07-04T07:15:02.922Z,99998.16
2018-07-04T07:17:43.389Z,100000.86
2018-07-04T07:20:23.859Z,99996.03
2018-07-04T07:23:04.321Z,99995.79
2018-07-04T07:25:44.750Z,99997.51
2018-07-04T07:28:24.973Z,99997.32
2018-07-04T07:31:05.339Z,99989.06
2018-07-04T07:33:45.739Z,99995.55
2018-07-04T07:36:26.105Z,99987.89
2018-07-04T07:39:06.579Z,99985.08
2018-07-04T07:41:46.974Z,99997.55
2018-07-04T07:44:27.184Z,99991.07
2018-07-04T07:47:07.493Z,99991.59
2018-07-04T07:49:47.918Z,99990.14
2018-07-04T07:52:28.204Z,99979.90
2018-07-04T07:55:08.846Z,99976.22
2018-07-04T07:57:49.207Z,99970.40
2018-07-04T08:00:29.868Z,99975.29
2018-07-04T08:03:10.535Z,99971.39
2018-07-04T08:05:51.014Z,99968.23
2018-07-04T08:08:31.468Z,99961.35
2018-07-04T08:11:12.040Z,99961.70
2018-07-04T08:13:52.469Z,99957.33
2018-07-04T08:16:33.137Z,99957.00
2018-07-04T08:19:14.487Z,99953.06
2018-07-04T08:21:55.045Z,99957.84
2018-07-04T08:24:35.342Z,99960.19
2018-07-04T08:27:15.725Z,99962.56
2018-07-04T08:29:56.344Z,99953.10
2018-07-04T08:32:36.901Z,99955.93
2018-07-04T08:35:17.378Z,99946.27
2018-07-04T08:37:57.749Z,99950.22
2018-07-04T08:40:38.148Z,99948.05
2018-07-04T08:43:18.591Z,99945.69
2018-07-04T08:45:59.038Z,99943.46
2018-07-04T08:48:39.397Z,99944.98
2018-07-04T08:51:19.818Z,99946.34
2018-07-04T08:54:00.342Z,99950.31
2018-07-04T08:56:40.725Z,99949.58
2018-07-04T08:59:21.256Z,99954.27
2018-07-04T09:02:01.658Z,99945.94
2018-07-04T09:04:41.974Z,99941.49
2018-07-04T09:07:22.307Z,99944.14
2018-07-04T09:10:02.618Z,99938.21
2018-07-04T09:12:42.974Z,99944.23
2018-07-04T09:15:23.363Z,99937.84
2018-07-04T09:18:03.655Z,99937.06
2018-07-04T09:20:44.073Z,99933.39
2018-07-04T09:23:24.363Z,99933.97
2018-07-04T09:26:04.677Z,99940.12
2018-07-04T09:28:45.132Z,99935.58
2018-07-04T09:31:25.548Z,99934.96
2018-07-04T09:34:05.911Z,99932.79
2018-07-04T09:36:46.150Z,99920.61
2018-07-04T09:39:26.372Z,99921.71
2018-07-04T09:42:06.626Z,99916.68
2018-07-04T09:44:47.113Z,99910.81
2018-07-04T09:47:27.382Z,99907.95
2018-07-04T09:50:07.781Z,99920.17
2018-07-04T09:52:48.329Z,99923.05
2018-07-04T09:55:28.795Z,99910.20
2018-07-04T09:58:09.198Z,99914.36
2018-07-04T10:00:55.211Z,99912.56
2018-07-04T10:03:35.486Z,99911.53
2018-07-04T10:06:15.865Z,99910.02
2018-07-04T10:08:56.505Z,99907.67
2018-07-04T10:11:36.836Z,99911.60
2018-07-04T10:14:17.151Z,99903.15
2018-07-04T10:16:57.579Z,99896.60
2018-07-04T10:19:38.013Z,99909.02
2018-07-04T10:22:18.431Z,99909.98
2018-07-04T10:24:58.733Z,99898.71
2018-07-04T10:27:39.175Z,99892.38
2018-07-04T10:30:19.781Z,99885.66
2018-07-04T10:33:00.231Z,99884.26
2018-07-04T10:35:40.465Z,99883.86
2018-07-04T10:38:20.759Z,99885.88
2018-07-04T10:41:01.192Z,99873.23
2018-07-04T10:43:41.724Z,99877.78
2018-07-04T10:46:22.117Z,99874.69
2018-07-04T10:49:02.610Z,99873.45
2018-07-04T10:51:42.896Z,99873.75
2018-07-04T10:54:23.543Z,99866.02
2018-07-04T10:57:04.021Z,99874.84
2018-07-04T10:59:44.323Z,99873.59
2018-07-04T11:02:24.574Z,99861.47
2018-07-04T11:05:04.934Z,99860.47
2018-07-04T11:07:45.230Z,99865.83
2018-07-04T11:10:25.546Z,99864.75
2018-07-04T11:13:06.065Z,99858.27
2018-07-04T11:15:46.379Z,99858.69
2018-07-04T11:18:26.637Z,99859.66
2018-07-04T11:21:06.876Z,99851.80
2018-07-04T11:23:47.421Z,99849.77
2018-07-04T11:26:27.869Z,99847.20
2018-07-04T11:29:08.273Z,99845.36
2018-07-04T11:31:48.592Z,99845.67
2018-07-04T11:34:29.013Z,99836.52
2018-07-04T11:37:09.376Z,99835.19
2018-07-04T11:39:49.616Z,99833.74
2018-07-04T11:42:30.059Z,99830.01
2018-07-04T11:45:10.489Z,99833.46
2018-07-04T11:47:38.439Z,99825.72
2018-07-04T11:50:06.394Z,99816.85
2018-07-04T11:52:34.416Z,99815.42
2018-07-04T11:55:02.606Z,99825.42
2018-07-04T11:57:30.949Z,99823.73
2018-07-04T11:59:58.918Z,99821.13
2018-07-04T12:02:26.964Z,99817.33
2018-07-04T12:05:07.453Z,99824.09
2018-07-04T12:07:35.455Z,99823.89
2018-07-04T12:10:03.468Z,99819.97
2018-07-04T12:12:31.426Z,99830.36
2018-07-04T12:14:59.381Z,99822.70
2018-07-04T12:17:27.349Z,99824.25
2018-07-04T12:19:55.317Z,99816.00
2018-07-04T12:22:23.273Z,99821.73
2018-07-04T12:24:51.269Z,99811.13
2018-07-04T12:27:19.241Z,99809.26
2018-07-04T12:29:47.209Z,99804.49
2018-07-04T12:32:15.336Z,99802.46
2018-07-04T12:34:43.296Z,99810.39
2018-07-04T12:37:11.316Z,99804.79
2018-07-04T12:39:39.289Z,99811.63
2018-07-04T12:42:07.528Z,99803.13
2018-07-04T12:44:35.508Z,99808.95
2018-07-04T12:47:03.516Z,99803.36
2018-07-04T12:49:31.505Z,99805.64
2018-07-04T12:52:00.024Z,99796.22
2018-07-04T12:54:33.601Z,99797.47
2018-07-04T12:57:13.983Z,99798.58
2018-07-04T12:59:54.349Z,99796.08
2018-07-04T13:02:34.693Z,99780.70
2018-07-04T13:05:15.054Z,99788.02
2018-07-04T13:07:55.301Z,99781.66
2018-07-04T13:10:35.685Z,99775.42
2018-07-04T13:13:16.238Z,99786.49
2018-07-04T13:15:56.533Z,99777.75
2018-07-04T13:18:36.903Z,99769.80
2018-07-04T13:21:17.213Z,99779.13
2018-07-04T13:23:57.607Z,99775.98
2018-07-04T13:26:38.048Z,99759.58
2018-07-04T13:29:18.230Z,99750.72
2018-07-04T13:31:58.648Z,99755.95
2018-07-04T13:34:39.002Z,99752.80
2018-07-04T13:37:19.816Z,99751.66
2018-07-04T13:40:00.373Z,99753.16
2018-07-04T13:42:40.693Z,99744.17
2018-07-04T13:45:21.190Z,99735.60
2018-07-04T13:48:01.560Z,99741.09
2018-07-04T13:50:41.909Z,99732.59
2018-07-04T13:53:22.382Z,99726.52
2018-07-04T13:56:02.726Z,99725.69
2018-07-04T13:58:43.173Z,99724.03
2018-07-04T14:01:23.773Z,99722.45
2018-07-04T14:04:04.165Z,99724.64
2018-07-04T14:06:44.576Z,99720.19
2018-07-04T14:09:24.845Z,99717.57
2018-07-04T14:12:05.165Z,99714.66
2018-07-04T14:14:45.527Z,99711.81
2018-07-04T14:17:25.893Z,99721.02
2018-07-04T14:20:06.454Z,99723.77
2018-07-04T14:22:46.707Z,99708.94
2018-07-04T14:25:27.035Z,99716.08
2018-07-04T14:28:07.447Z,99710.09
2018-07-04T14:30:47.635Z,99712.84
2018-07-04T14:33:27.962Z,99700.33
2018-07-04T14:36:08.349Z,99703.81
2018-07-04T14:38:48.550Z,99704.66
2018-07-04T14:41:28.854Z,99692.62
2018-07-04T14:44:09.213Z,99685.33
2018-07-04T14:46:49.692Z,99690.66
2018-07-04T14:49:30.378Z,99694.56
2018-07-04T14:52:10.883Z,99682.34
2018-07-04T14:54:51.300Z,99685.27
2018-07-04T14:57:31.766Z,99687.31
2018-07-04T15:00:12.672Z,99684.97
2018-07-04T15:02:53.326Z,99680.86
2018-07-04T15:05:33.724Z,99680.58
2018-07-04T15:08:13.889Z,99677.73
2018-07-04T15:10:54.331Z,99677.20
2018-07-04T15:13:34.630Z,99676.60
2018-07-04T15:16:15.105Z,99676.56
2018-07-04T15:18:55.486Z,99667.55
2018-07-04T15:21:35.804Z,99671.02
2018-07-04T15:24:16.242Z,99669.18
2018-07-04T15:26:56.550Z,99660.03
2018-07-04T15:29:37.093Z,99656.16
2018-07-04T15:32:17.444Z,99658.94
2018-07-04T15:34:57.824Z,99667.92
2018-07-04T15:37:38.339Z,99668.84
2018-07-04T15:40:18.534Z,99665.75
2018-07-04T15:42:59.040Z,99668.23
2018-07-04T15:45:39.599Z,99666.69
2018-07-04T15:48:19.874Z,99666.97
2018-07-04T15:51:00.421Z,99661.11
2018-07-04T15:53:40.859Z,99660.48
2018-07-04T15:56:21.278Z,99668.51
2018-07-04T15:59:01.570Z,99669.08
2018-07-04T16:01:41.895Z,99659.17
2018-07-04T16:04:22.204Z,99666.27
2018-07-04T16:07:02.541Z,99665.94
2018-07-04T16:09:42.941Z,99662.41
2018-07-04T16:12:23.381Z,99671.56
2018-07-04T16:15:03.837Z,99665.17
2018-07-04T16:17:44.102Z,99655.56
2018-07-04T16:20:24.464Z,99653.63
2018-07-04T16:23:04.810Z,99657.19
2018-07-04T16:25:45.082Z,99659.09
2018-07-04T16:28:25.386Z,99666.73
2018-07-04T16:31:05.725Z,99668.95
2018-07-04T16:33:46.011Z,99663.37
2018-07-04T16:36:26.348Z,99658.41
2018-07-04T16:39:07.301Z,99664.75
2018-07-04T16:41:47.959Z,99659.56
2018-07-04T16:44:28.274Z,99660.84
2018-07-04T16:47:08.693Z,99655.77
2018-07-04T16:49:49.002Z,99662.88
2018-07-04T16:52:29.460Z,99654.84
2018-07-04T16:55:09.962Z,99658.66
2018-07-04T16:57:50.449Z,99661.62
2018-07-04T17:00:30.736Z,99652.28
2018-07-04T17:03:11.018Z,99651.93
2018-07-04T17:05:51.215Z,99651.16
2018-07-04T17:08:31.688Z,99656.02
2018-07-04T17:11:15.138Z,99647.48
2018-07-04T17:13:55.521Z,99643.58
2018-07-04T17:16:36.030Z,99646.36
2018-07-04T17:19:16.410Z,99643.42
2018-07-04T17:21:56.978Z,99640.55
2018-07-04T17:24:37.415Z,99636.40
2018-07-04T17:27:17.891Z,99642.62
2018-07-04T17:29:58.235Z,99640.37
2018-07-04T17:32:38.661Z,99638.12
2018-07-04T17:35:19.123Z,99635.33
2018-07-04T17:37:59.506Z,99631.82
2018-07-04T17:40:39.775Z,99631.95
2018-07-04T17:43:20.187Z,99630.55
2018-07-04T17:46:00.641Z,99629.89
2018-07-04T17:48:41.033Z,99626.41
2018-07-04T17:51:21.389Z,99621.84
2018-07-04T17:54:01.803Z,99622.67
2018-07-04T17:56:42.134Z,99622.65
2018-07-04T17:59:22.410Z,99617.42
2018-07-04T18:02:02.744Z,99618.06
2018-07-04T18:04:43.181Z,99621.73
2018-07-04T18:07:23.524Z,99617.36
2018-07-04T18:10:04.072Z,99613.80
2018-07-04T18:12:44.475Z,99613.20
2018-07-04T18:15:24.902Z,99614.17
2018-07-04T18:18:05.204Z,99614.41
2018-07-04T18:20:45.630Z,99618.38
2018-07-04T18:23:26.061Z,99618.97
2018-07-04T18:26:06.542Z,99622.64
2018-07-04T18:28:47.094Z,99623.02
2018-07-04T18:31:27.840Z,99624.00
2018-07-04T18:34:08.358Z,99629.17
2018-07-04T18:36:48.830Z,99626.16
2018-07-04T18:39:29.196Z,99630.34
2018-07-04T18:42:09.979Z,99628.17
2018-07-04T18:44:50.411Z,99630.34
2018-07-04T18:47:30.749Z,99624.77
2018-07-04T18:50:11.213Z,99631.62
2018-07-04T18:52:52.237Z,99623.90
2018-07-04T18:55:32.570Z,99622.42
2018-07-04T18:58:13.351Z,99623.89
2018-07-04T19:00:54.137Z,99629.81
2018-07-04T19:03:34.570Z,99632.59
2018-07-04T19:06:14.808Z,99628.48
2018-07-04T19:08:55.273Z,99634.75
2018-07-04T19:11:35.896Z,99633.00
2018-07-04T19:14:16.445Z,99632.44
2018-07-04T19:16:56.865Z,99637.32
2018-07-04T19:19:37.218Z,99642.73
2018-07-04T19:22:17.522Z,99646.42
2018-07-04T19:24:57.823Z,99646.19
2018-07-04T19:27:38.120Z,99657.14
2018-07-04T19:30:18.599Z,99660.47
2018-07-04T19:32:59.082Z,99658.70
2018-07-04T19:35:39.623Z,99663.50
2018-07-04T19:38:20.011Z,99667.54
2018-07-04T19:41:00.445Z,99669.31
2018-07-04T19:43:41.006Z,99668.65
2018-07-04T19:46:21.446Z,99665.98
2018-07-04T19:49:01.791Z,99671.77
2018-07-04T19:51:42.185Z,99672.67
2018-07-04T19:54:22.506Z,99674.27
2018-07-04T19:57:03.011Z,99669.45
2018-07-04T19:59:43.270Z,99666.06
2018-07-04T20:02:23.681Z,99658.16
2018-07-04T20:05:03.949Z,99657.48
2018-07-04T20:07:44.245Z,99657.44
2018-07-04T20:10:24.650Z,99661.16
2018-07-04T20:13:05.413Z,99657.44
2018-07-04T20:15:45.903Z,99654.45
2018-07-04T20:18:26.404Z,99655.14
2018-07-04T20:21:06.934Z,99656.16
2018-07-04T20:23:47.432Z,99651.20
2018-07-04T20:26:27.924Z,99661.30
2018-07-04T20:29:08.204Z,99660.33
2018-07-04T20:31:48.689Z,99666.27
2018-07-04T20:34:29.150Z,99670.59
2018-07-04T20:37:09.410Z,99671.98
2018-07-04T20:39:49.825Z,99665.14
2018-07-04T20:42:30.142Z,99671.27
2018-07-04T20:45:10.496Z,99674.44
2018-07-04T20:47:50.749Z,99674.86
2018-07-04T20:50:31.064Z,99667.71
2018-07-04T20:53:11.407Z,99672.23
2018-07-04T20:55:51.723Z,99674.77
2018-07-04T20:58:31.997Z,99673.01
2018-07-04T21:01:12.497Z,99680.94
2018-07-04T21:03:52.857Z,99679.19
2018-07-04T21:06:33.226Z,99682.39
2018-07-04T21:09:13.538Z,99692.27
2018-07-04T21:11:53.826Z,99690.32
2018-07-04T21:14:34.683Z,99690.48
2018-07-04T21:17:15.056Z,99689.02
2018-07-04T21:19:55.386Z,99697.33
2018-07-04T21:22:35.808Z,99696.55
2018-07-04T21:25:16.239Z,99694.98
2018-07-04T21:27:56.577Z,99696.81
2018-07-04T21:30:36.857Z,99702.34
2018-07-04T21:33:17.227Z,99693.23
2018-07-04T21:35:57.578Z,99701.72
2018-07-04T21:38:37.965Z,99698.22
2018-07-04T21:41:18.577Z,99700.39
2018-07-04T21:43:58.924Z,99695.64
2018-07-04T21:46:39.357Z,99691.78
2018-07-04T21:49:19.697Z,99691.13
2018-07-04T21:52:00.255Z,99698.22
2018-07-04T21:54:40.670Z,99694.63
2018-07-04T21:57:20.848Z,99690.77
2018-07-04T22:00:01.455Z,99688.55
2018-07-04T22:02:41.829Z,99684.41
2018-07-04T22:05:22.214Z,99680.09
2018-07-04T22:08:02.628Z,99681.17
2018-07-04T22:10:44.496Z,99675.88
2018-07-04T22:13:24.772Z,99680.69
2018-07-04T22:16:05.148Z,99680.19
2018-07-04T22:18:45.465Z,99679.68
2018-07-04T22:21:26.055Z,99685.86
2018-07-04T22:24:06.844Z,99684.44
2018-07-04T22:26:47.330Z,99687.17
2018-07-04T22:29:27.525Z,99686.97
2018-07-04T22:32:07.786Z,99676.48
2018-07-04T22:34:48.276Z,99678.28
2018-07-04T22:37:28.554Z,99674.48
2018-07-04T22:40:08.895Z,99682.52
2018-07-04T22:42:49.260Z,99675.85
2018-07-04T22:45:29.458Z,99674.17
2018-07-04T22:48:09.773Z,99673.58
2018-07-04T22:50:50.146Z,99678.02
2018-07-04T22:53:30.536Z,99675.00
2018-07-04T22:56:10.852Z,99680.67
2018-07-04T22:58:51.276Z,99680.72
2018-07-04T23:01:31.702Z,99681.49
2018-07-04T23:04:12.155Z,99674.47
2018-07-04T23:06:52.630Z,99673.38
2018-07-04T23:09:33.181Z,99673.93
2018-07-04T23:12:13.484Z,99675.70
2018-07-04T23:14:53.774Z,99676.91
2018-07-04T23:17:34.144Z,99673.67
2018-07-04T23:20:14.538Z,99679.45
2018-07-04T23:22:54.909Z,99675.95
2018-07-04T23:25:35.353Z,99681.30
2018-07-04T23:28:18.212Z,99682.72
2018-07-04T23:31:01.593Z,99687.27
2018-07-04T23:33:41.999Z,99686.42
2018-07-04T23:36:22.493Z,99681.02
2018-07-04T23:39:03.072Z,99679.79
2018-07-04T23:41:43.342Z,99682.64
2018-07-04T23:44:23.693Z,99684.00
2018-07-04T23:47:04.160Z,99680.05
2018-07-04T23:49:44.427Z,99682.33
2018-07-04T23:52:24.778Z,99682.28
2018-07-04T23:55:05.254Z,99677.11
2018-07-04T23:57:45.511Z,99686.38
